sensor_id;sensor_type;location;lat;lon;timestamp;P1;durP1;ratioP1;P2;durP2;ratioP2
26696;SDS011;14312;52.614;13.496;2023-11-19T11:34:58;7.85;;;3.53;;
26696;SDS011;14312;52.614;13.496;2023-11-19T11:37:59;4.18;;;3.17;;
26696;SDS011;14312;52.614;13.496;2023-11-19T11:44:05;8.18;;;3.45;;
26696;SDS011;14312;52.614;13.496;2023-11-19T11:46:54;5.35;;;3.13;;
26696;SDS011;14312;52.614;13.496;2023-11-19T11:49:40;4.18;;;3.08;;
26696;SDS011;14312;52.614;13.496;2023-11-19T11:52:27;6.57;;;3.00;;
26696;SDS011;14312;52.614;13.496;2023-11-19T11:55:13;6.32;;;2.58;;
26696;SDS011;14312;52.614;13.496;2023-11-19T11:57:59;5.90;;;2.45;;
26696;SDS011;14312;52.614;13.496;2023-11-19T12:00:45;5.70;;;2.80;;
26696;SDS011;14312;52.614;13.496;2023-11-19T12:03:33;7.00;;;2.78;;
26696;SDS011;14312;52.614;13.496;2023-11-19T12:06:20;5.78;;;2.67;;
26696;SDS011;14312;52.614;13.496;2023-11-19T12:09:07;6.90;;;2.80;;
26696;SDS011;14312;52.614;13.496;2023-11-19T12:12:07;8.00;;;3.05;;
26696;SDS011;14312;52.614;13.496;2023-11-19T12:15:07;6.85;;;2.60;;
26696;SDS011;14312;52.614;13.496;2023-11-19T12:17:56;3.72;;;2.08;;
26696;SDS011;14312;52.614;13.496;2023-11-19T12:20:43;8.73;;;3.03;;
26696;SDS011;14312;52.614;13.496;2023-11-19T12:23:29;5.25;;;2.72;;
26696;SDS011;14312;52.614;13.496;2023-11-19T12:26:37;6.40;;;2.60;;
26696;SDS011;14312;52.614;13.496;2023-11-19T12:29:23;5.82;;;2.38;;
26696;SDS011;14312;52.614;13.496;2023-11-19T12:32:09;3.67;;;2.15;;
26696;SDS011;14312;52.614;13.496;2023-11-19T12:34:55;8.63;;;2.90;;
26696;SDS011;14312;52.614;13.496;2023-11-19T12:37:42;5.65;;;2.45;;
26696;SDS011;14312;52.614;13.496;2023-11-19T12:40:32;8.80;;;3.17;;
26696;SDS011;14312;52.614;13.496;2023-11-19T12:43:22;6.18;;;2.42;;
26696;SDS011;14312;52.614;13.496;2023-11-19T12:49:05;5.53;;;2.42;;
26696;SDS011;14312;52.614;13.496;2023-11-19T12:51:51;6.55;;;2.70;;
26696;SDS011;14312;52.614;13.496;2023-11-19T12:54:37;6.82;;;2.60;;
26696;SDS011;14312;52.614;13.496;2023-11-19T12:57:36;8.23;;;2.72;;
26696;SDS011;14312;52.614;13.496;2023-11-19T13:00:28;10.10;;;3.10;;
26696;SDS011;14312;52.614;13.496;2023-11-19T13:03:22;7.22;;;2.90;;
26696;SDS011;14312;52.614;13.496;2023-11-19T13:06:15;5.75;;;2.80;;
26696;SDS011;14312;52.614;13.496;2023-11-19T13:09:01;5.35;;;2.42;;
26696;SDS011;14312;52.614;13.496;2023-11-19T13:11:47;5.40;;;2.78;;
26696;SDS011;14312;52.614;13.496;2023-11-19T13:14:36;4.82;;;2.78;;
26696;SDS011;14312;52.614;13.496;2023-11-19T13:17:27;6.40;;;2.72;;
26696;SDS011;14312;52.614;13.496;2023-11-19T13:20:14;7.40;;;2.80;;
26696;SDS011;14312;52.614;13.496;2023-11-19T13:23:03;6.00;;;2.40;;
26696;SDS011;14312;52.614;13.496;2023-11-19T13:25:50;5.90;;;2.60;;
26696;SDS011;14312;52.614;13.496;2023-11-19T13:28:37;7.15;;;2.80;;
26696;SDS011;14312;52.614;13.496;2023-11-19T13:31:23;6.97;;;3.22;;
26696;SDS011;14312;52.614;13.496;2023-11-19T13:34:09;5.63;;;2.40;;
26696;SDS011;14312;52.614;13.496;2023-11-19T13:36:55;6.47;;;2.78;;
26696;SDS011;14312;52.614;13.496;2023-11-19T13:39:43;7.22;;;2.75;;
26696;SDS011;14312;52.614;13.496;2023-11-19T13:42:30;7.60;;;2.72;;
26696;SDS011;14312;52.614;13.496;2023-11-19T13:45:16;6.55;;;2.70;;
26696;SDS011;14312;52.614;13.496;2023-11-19T13:48:04;5.80;;;2.92;;
26696;SDS011;14312;52.614;13.496;2023-11-19T13:50:50;6.72;;;2.88;;
26696;SDS011;14312;52.614;13.496;2023-11-19T13:53:36;4.93;;;2.55;;
26696;SDS011;14312;52.614;13.496;2023-11-19T13:56:23;10.18;;;3.20;;
26696;SDS011;14312;52.614;13.496;2023-11-19T13:59:09;7.38;;;3.42;;
26696;SDS011;14312;52.614;13.496;2023-11-19T14:01:55;9.68;;;3.03;;
26696;SDS011;14312;52.614;13.496;2023-11-19T14:04:41;8.25;;;2.90;;
26696;SDS011;14312;52.614;13.496;2023-11-19T14:07:27;8.75;;;3.55;;
26696;SDS011;14312;52.614;13.496;2023-11-19T14:10:13;9.07;;;3.13;;
26696;SDS011;14312;52.614;13.496;2023-11-19T14:13:00;6.28;;;3.30;;
26696;SDS011;14312;52.614;13.496;2023-11-19T14:15:46;9.05;;;3.33;;
26696;SDS011;14312;52.614;13.496;2023-11-19T14:18:33;7.72;;;3.38;;
26696;SDS011;14312;52.614;13.496;2023-11-19T14:21:20;11.45;;;4.07;;
26696;SDS011;14312;52.614;13.496;2023-11-19T14:24:06;8.52;;;3.03;;
26696;SDS011;14312;52.614;13.496;2023-11-19T14:26:53;8.10;;;3.25;;
26696;SDS011;14312;52.614;13.496;2023-11-19T14:29:39;11.00;;;4.00;;
26696;SDS011;14312;52.614;13.496;2023-11-19T14:32:25;10.90;;;3.53;;
26696;SDS011;14312;52.614;13.496;2023-11-19T14:35:11;10.65;;;3.20;;
26696;SDS011;14312;52.614;13.496;2023-11-19T14:37:57;10.07;;;3.45;;
26696;SDS011;14312;52.614;13.496;2023-11-19T14:40:44;9.57;;;4.35;;
26696;SDS011;14312;52.614;13.496;2023-11-19T14:43:30;8.90;;;4.05;;
26696;SDS011;14312;52.614;13.496;2023-11-19T14:46:16;9.90;;;3.42;;
26696;SDS011;14312;52.614;13.496;2023-11-19T14:49:02;8.85;;;3.40;;
26696;SDS011;14312;52.614;13.496;2023-11-19T14:51:50;10.90;;;4.10;;
26696;SDS011;14312;52.614;13.496;2023-11-19T14:54:37;11.48;;;3.25;;
26696;SDS011;14312;52.614;13.496;2023-11-19T14:57:24;11.55;;;3.80;;
26696;SDS011;14312;52.614;13.496;2023-11-19T15:00:10;10.48;;;3.70;;
26696;SDS011;14312;52.614;13.496;2023-11-19T15:02:59;7.82;;;3.03;;
26696;SDS011;14312;52.614;13.496;2023-11-19T15:05:45;7.95;;;3.05;;
26696;SDS011;14312;52.614;13.496;2023-11-19T15:08:32;8.75;;;3.78;;
26696;SDS011;14312;52.614;13.496;2023-11-19T15:11:18;11.00;;;4.20;;
26696;SDS011;14312;52.614;13.496;2023-11-19T15:14:05;8.10;;;3.50;;
26696;SDS011;14312;52.614;13.496;2023-11-19T15:16:51;10.15;;;3.88;;
26696;SDS011;14312;52.614;13.496;2023-11-19T15:19:37;7.13;;;3.70;;
26696;SDS011;14312;52.614;13.496;2023-11-19T15:22:24;11.50;;;4.05;;
26696;SDS011;14312;52.614;13.496;2023-11-19T15:25:10;8.80;;;3.45;;
26696;SDS011;14312;52.614;13.496;2023-11-19T15:27:56;12.07;;;3.75;;
26696;SDS011;14312;52.614;13.496;2023-11-19T15:30:42;9.57;;;4.20;;
26696;SDS011;14312;52.614;13.496;2023-11-19T15:33:28;11.95;;;3.30;;
26696;SDS011;14312;52.614;13.496;2023-11-19T15:36:14;8.63;;;3.40;;
26696;SDS011;14312;52.614;13.496;2023-11-19T15:39:00;9.95;;;3.78;;
26696;SDS011;14312;52.614;13.496;2023-11-19T15:41:46;12.98;;;3.80;;
26696;SDS011;14312;52.614;13.496;2023-11-19T15:44:33;10.63;;;3.83;;
26696;SDS011;14312;52.614;13.496;2023-11-19T15:47:19;14.32;;;3.88;;
26696;SDS011;14312;52.614;13.496;2023-11-19T15:50:06;10.70;;;3.50;;
26696;SDS011;14312;52.614;13.496;2023-11-19T15:52:52;12.55;;;3.90;;
26696;SDS011;14312;52.614;13.496;2023-11-19T15:55:38;8.82;;;4.10;;
26696;SDS011;14312;52.614;13.496;2023-11-19T15:58:25;10.88;;;3.35;;
26696;SDS011;14312;52.614;13.496;2023-11-19T16:01:11;9.20;;;3.58;;
26696;SDS011;14312;52.614;13.496;2023-11-19T16:03:58;11.40;;;3.92;;
26696;SDS011;14312;52.614;13.496;2023-11-19T16:06:44;9.85;;;3.25;;
26696;SDS011;14312;52.614;13.496;2023-11-19T16:09:30;9.27;;;3.28;;
26696;SDS011;14312;52.614;13.496;2023-11-19T16:12:16;6.95;;;3.13;;
26696;SDS011;14312;52.614;13.496;2023-11-19T16:15:03;7.93;;;3.50;;
26696;SDS011;14312;52.614;13.496;2023-11-19T16:17:49;12.55;;;3.80;;
26696;SDS011;14312;52.614;13.496;2023-11-19T16:20:35;12.77;;;4.43;;
26696;SDS011;14312;52.614;13.496;2023-11-19T16:23:21;8.68;;;3.40;;
26696;SDS011;14312;52.614;13.496;2023-11-19T16:26:07;6.40;;;3.30;;
26696;SDS011;14312;52.614;13.496;2023-11-19T16:28:53;10.70;;;4.07;;
26696;SDS011;14312;52.614;13.496;2023-11-19T16:31:39;13.10;;;3.70;;
26696;SDS011;14312;52.614;13.496;2023-11-19T16:34:28;12.10;;;4.45;;
26696;SDS011;14312;52.614;13.496;2023-11-19T16:37:15;10.20;;;3.53;;
26696;SDS011;14312;52.614;13.496;2023-11-19T16:40:02;8.73;;;3.55;;
26696;SDS011;14312;52.614;13.496;2023-11-19T16:42:48;8.63;;;3.70;;
26696;SDS011;14312;52.614;13.496;2023-11-19T16:45:36;9.25;;;4.03;;
26696;SDS011;14312;52.614;13.496;2023-11-19T16:48:22;7.05;;;3.50;;
26696;SDS011;14312;52.614;13.496;2023-11-19T16:51:09;9.77;;;3.70;;
26696;SDS011;14312;52.614;13.496;2023-11-19T16:54:02;12.20;;;3.72;;
26696;SDS011;14312;52.614;13.496;2023-11-19T16:56:48;7.20;;;3.25;;
26696;SDS011;14312;52.614;13.496;2023-11-19T16:59:34;9.65;;;3.42;;
26696;SDS011;14312;52.614;13.496;2023-11-19T17:02:20;9.55;;;3.50;;
26696;SDS011;14312;52.614;13.496;2023-11-19T17:05:09;8.80;;;3.72;;
26696;SDS011;14312;52.614;13.496;2023-11-19T17:07:55;11.57;;;3.88;;
26696;SDS011;14312;52.614;13.496;2023-11-19T17:10:43;10.40;;;3.67;;
26696;SDS011;14312;52.614;13.496;2023-11-19T17:13:30;11.40;;;4.10;;
26696;SDS011;14312;52.614;13.496;2023-11-19T17:16:16;12.73;;;4.22;;
26696;SDS011;14312;52.614;13.496;2023-11-19T17:19:02;10.57;;;3.63;;
26696;SDS011;14312;52.614;13.496;2023-11-19T17:21:48;10.15;;;3.92;;
26696;SDS011;14312;52.614;13.496;2023-11-19T17:24:34;12.35;;;4.60;;
26696;SDS011;14312;52.614;13.496;2023-11-19T17:27:20;12.05;;;4.38;;
26696;SDS011;14312;52.614;13.496;2023-11-19T17:30:09;8.27;;;3.65;;
26696;SDS011;14312;52.614;13.496;2023-11-19T17:32:56;8.27;;;3.78;;
26696;SDS011;14312;52.614;13.496;2023-11-19T17:35:42;8.93;;;4.63;;
26696;SDS011;14312;52.614;13.496;2023-11-19T17:38:29;7.55;;;3.15;;
26696;SDS011;14312;52.614;13.496;2023-11-19T17:41:15;6.97;;;3.35;;
26696;SDS011;14312;52.614;13.496;2023-11-19T17:44:01;7.38;;;3.30;;
26696;SDS011;14312;52.614;13.496;2023-11-19T17:46:47;7.63;;;3.63;;
26696;SDS011;14312;52.614;13.496;2023-11-19T17:49:34;10.85;;;3.90;;
26696;SDS011;14312;52.614;13.496;2023-11-19T17:52:21;8.73;;;3.47;;
26696;SDS011;14312;52.614;13.496;2023-11-19T17:55:07;7.90;;;3.30;;
26696;SDS011;14312;52.614;13.496;2023-11-19T17:57:58;6.95;;;3.35;;
26696;SDS011;14312;52.614;13.496;2023-11-19T18:00:45;7.20;;;2.95;;
26696;SDS011;14312;52.614;13.496;2023-11-19T18:03:31;7.05;;;3.75;;
26696;SDS011;14312;52.614;13.496;2023-11-19T18:06:18;7.63;;;3.67;;
26696;SDS011;14312;52.614;13.496;2023-11-19T18:09:04;11.18;;;3.70;;
26696;SDS011;14312;52.614;13.496;2023-11-19T18:11:52;9.88;;;3.25;;
26696;SDS011;14312;52.614;13.496;2023-11-19T18:14:40;6.13;;;3.00;;
26696;SDS011;14312;52.614;13.496;2023-11-19T18:17:26;7.40;;;3.25;;
26696;SDS011;14312;52.614;13.496;2023-11-19T18:20:12;8.43;;;3.35;;
26696;SDS011;14312;52.614;13.496;2023-11-19T18:22:59;7.32;;;2.90;;
26696;SDS011;14312;52.614;13.496;2023-11-19T18:25:46;5.32;;;2.67;;
26696;SDS011;14312;52.614;13.496;2023-11-19T18:28:32;4.90;;;2.35;;
26696;SDS011;14312;52.614;13.496;2023-11-19T18:31:18;5.38;;;2.85;;
